createdAt,value
2019-03-03T00:01:25.597Z,11.23
2019-03-03T00:03:55.383Z,11.57
2019-03-03T00:06:25.475Z,16.87
2019-03-03T00:08:55.261Z,14.13
2019-03-03T00:11:25.075Z,14.97
2019-03-03T00:13:54.861Z,12.40
2019-03-03T00:16:24.609Z,19.50
2019-03-03T00:18:54.361Z,13.27
2019-03-03T00:21:24.403Z,14.70
2019-03-03T00:23:54.073Z,17.77
2019-03-03T00:26:23.888Z,14.83
2019-03-03T00:28:53.714Z,16.57
2019-03-03T00:31:42.674Z,15.77
2019-03-03T00:34:12.748Z,17.80
2019-03-03T00:37:19.849Z,17.30
2019-03-03T00:40:08.746Z,17.70
2019-03-03T00:42:55.853Z,18.10
2019-03-03T00:45:43.648Z,15.70
2019-03-03T00:48:21.995Z,16.40
2019-03-03T00:50:58.858Z,21.63
2019-03-03T00:53:47.678Z,12.33
2019-03-03T00:56:23.338Z,16.03
2019-03-03T00:59:01.442Z,26.17
2019-03-03T01:01:48.956Z,20.03
2019-03-03T01:04:42.959Z,12.67
2019-03-03T01:07:22.821Z,14.17
2019-03-03T01:10:14.468Z,16.00
2019-03-03T01:13:02.241Z,14.53
2019-03-03T01:15:47.420Z,12.23
2019-03-03T01:18:36.301Z,14.80
2019-03-03T01:21:24.049Z,12.87
2019-03-03T01:24:19.002Z,13.97
2019-03-03T01:26:48.740Z,16.23
2019-03-03T01:29:18.554Z,16.80
2019-03-03T01:31:48.444Z,16.63
2019-03-03T01:34:18.240Z,16.37
2019-03-03T01:36:47.984Z,12.67
2019-03-03T01:39:17.663Z,14.17
2019-03-03T01:41:47.446Z,16.23
2019-03-03T01:44:17.223Z,18.43
2019-03-03T01:46:47.009Z,13.43
2019-03-03T01:49:17.247Z,14.30
2019-03-03T01:51:48.292Z,18.07
2019-03-03T01:54:18.060Z,18.73
2019-03-03T01:56:48.126Z,9.30
2019-03-03T01:59:17.834Z,15.03
2019-03-03T02:01:47.567Z,13.07
2019-03-03T02:04:17.333Z,12.50
2019-03-03T02:06:47.805Z,12.20
2019-03-03T02:09:17.582Z,18.07
2019-03-03T02:11:47.357Z,14.60
2019-03-03T02:14:17.232Z,13.63
2019-03-03T02:16:46.981Z,13.03
2019-03-03T02:19:16.692Z,14.70
2019-03-03T02:21:46.682Z,11.93
2019-03-03T02:24:16.437Z,13.13
2019-03-03T02:26:46.220Z,9.20
2019-03-03T02:29:16.008Z,4.97
2019-03-03T02:31:45.927Z,8.23
2019-03-03T02:34:15.559Z,10.33
2019-03-03T02:36:45.349Z,12.37
2019-03-03T02:39:18.931Z,11.27
2019-03-03T02:41:49.444Z,9.10
2019-03-03T02:44:19.236Z,6.17
2019-03-03T02:46:48.979Z,12.83
2019-03-03T02:49:18.735Z,10.30
2019-03-03T02:51:48.550Z,7.03
2019-03-03T02:54:18.386Z,10.77
2019-03-03T02:56:48.035Z,8.07
2019-03-03T02:59:18.085Z,6.23
2019-03-03T03:01:57.894Z,9.20
2019-03-03T03:04:27.688Z,6.80
2019-03-03T03:07:28.793Z,6.37
2019-03-03T03:10:04.123Z,9.43
2019-03-03T03:13:02.011Z,5.87
2019-03-03T03:15:49.837Z,7.63
2019-03-03T03:18:26.093Z,5.53
2019-03-03T03:21:24.123Z,6.33
2019-03-03T03:23:58.685Z,5.33
2019-03-03T03:26:47.544Z,7.40
2019-03-03T03:29:24.921Z,6.23
2019-03-03T03:32:07.225Z,5.67
2019-03-03T03:35:08.058Z,7.30
2019-03-03T03:37:46.909Z,12.20
2019-03-03T03:40:40.522Z,7.37
2019-03-03T03:43:20.272Z,6.80
2019-03-03T03:46:02.034Z,5.63
2019-03-03T03:48:52.913Z,7.77
2019-03-03T03:51:44.862Z,7.40
2019-03-03T03:54:24.466Z,7.43
2019-03-03T03:57:16.206Z,8.33
2019-03-03T04:00:05.823Z,8.30
2019-03-03T04:02:47.576Z,9.93
2019-03-03T04:05:23.466Z,6.27
2019-03-03T04:08:12.860Z,7.60
2019-03-03T04:11:07.434Z,8.53
2019-03-03T04:13:58.973Z,6.60
2019-03-03T04:16:34.994Z,9.73
2019-03-03T04:19:24.190Z,8.00
2019-03-03T04:22:05.737Z,7.47
2019-03-03T04:25:00.890Z,5.90
2019-03-03T04:27:48.160Z,4.93
2019-03-03T04:30:32.172Z,7.90
2019-03-03T04:33:21.898Z,6.93
2019-03-03T04:36:09.390Z,8.13
2019-03-03T04:38:48.626Z,5.97
2019-03-03T04:41:26.565Z,6.30
2019-03-03T04:44:03.808Z,11.43
2019-03-03T04:46:39.720Z,7.60
2019-03-03T04:49:24.545Z,8.33
2019-03-03T04:52:28.687Z,6.63
2019-03-03T04:55:20.156Z,7.70
2019-03-03T04:58:07.644Z,10.00
2019-03-03T05:00:59.447Z,6.93
2019-03-03T05:03:37.639Z,12.93
2019-03-03T05:06:21.504Z,3.53
2019-03-03T05:09:16.240Z,4.43
2019-03-03T05:12:18.453Z,12.03
2019-03-03T05:14:48.220Z,9.93
2019-03-03T05:17:28.445Z,6.43
2019-03-03T05:19:59.941Z,10.93
2019-03-03T05:22:29.652Z,8.07
2019-03-03T05:24:59.388Z,11.87
2019-03-03T05:27:29.153Z,6.97
2019-03-03T05:29:58.846Z,6.50
2019-03-03T05:32:28.997Z,7.33
2019-03-03T05:34:58.671Z,9.03
2019-03-03T05:37:29.454Z,9.97
2019-03-03T05:39:59.641Z,14.80
2019-03-03T05:42:29.377Z,12.77
2019-03-03T05:44:59.090Z,7.60
2019-03-03T05:47:28.991Z,9.67
2019-03-03T05:49:58.684Z,9.43
2019-03-03T05:52:28.462Z,7.60
2019-03-03T05:54:58.642Z,13.37
2019-03-03T05:57:30.084Z,11.47
2019-03-03T05:59:59.785Z,8.83
2019-03-03T06:02:29.535Z,4.50
2019-03-03T06:04:59.256Z,7.33
2019-03-03T06:07:28.950Z,5.57
2019-03-03T06:09:58.723Z,7.77
2019-03-03T06:12:28.806Z,8.13
2019-03-03T06:14:59.555Z,6.17
2019-03-03T06:17:30.015Z,9.53
2019-03-03T06:19:59.735Z,12.53
2019-03-03T06:22:29.518Z,11.23
2019-03-03T06:24:59.649Z,6.30
2019-03-03T06:27:29.377Z,13.87
2019-03-03T06:29:59.198Z,12.13
2019-03-03T06:32:28.963Z,9.80
2019-03-03T06:34:58.862Z,8.83
2019-03-03T06:37:29.151Z,7.57
2019-03-03T06:39:58.986Z,8.40
2019-03-03T06:42:28.654Z,8.43
2019-03-03T06:44:58.340Z,10.53
2019-03-03T06:47:28.232Z,9.73
2019-03-03T06:49:57.960Z,11.20
2019-03-03T06:52:28.090Z,11.47
2019-03-03T06:54:57.846Z,8.03
2019-03-03T06:57:27.613Z,10.43
2019-03-03T06:59:57.351Z,13.93
2019-03-03T07:02:27.002Z,8.77
2019-03-03T07:04:56.751Z,13.23
2019-03-03T07:07:26.520Z,16.10
2019-03-03T07:09:56.262Z,15.90
2019-03-03T07:12:25.917Z,15.27
2019-03-03T07:14:55.611Z,5.67
2019-03-03T07:17:25.445Z,10.47
2019-03-03T07:19:55.523Z,12.27
2019-03-03T07:22:25.325Z,18.43
2019-03-03T07:24:55.125Z,8.80
2019-03-03T07:27:25.372Z,16.10
2019-03-03T07:29:55.507Z,12.03
2019-03-03T07:32:25.186Z,17.93
2019-03-03T07:34:54.920Z,13.57
2019-03-03T07:37:24.768Z,14.93
2019-03-03T07:39:54.580Z,9.40
2019-03-03T07:42:24.345Z,14.30
2019-03-03T07:44:54.136Z,16.50
2019-03-03T07:47:23.959Z,13.27
2019-03-03T07:49:53.657Z,13.10
2019-03-03T07:52:23.394Z,12.83
2019-03-03T07:54:54.250Z,14.47
2019-03-03T07:57:24.430Z,14.33
2019-03-03T07:59:54.244Z,17.80
2019-03-03T08:02:24.021Z,15.20
2019-03-03T08:04:53.821Z,20.80
2019-03-03T08:07:23.745Z,12.30
2019-03-03T08:09:53.416Z,18.03
2019-03-03T08:12:23.392Z,10.40
2019-03-03T08:14:53.210Z,13.00
2019-03-03T08:17:23.144Z,14.97
2019-03-03T08:19:53.917Z,20.30
2019-03-03T08:22:23.770Z,14.60
2019-03-03T08:24:53.505Z,14.10
2019-03-03T08:27:23.281Z,18.73
2019-03-03T08:29:53.043Z,17.13
2019-03-03T08:32:22.867Z,13.33
2019-03-03T08:34:53.735Z,17.00
2019-03-03T08:37:23.692Z,21.40
2019-03-03T08:39:53.484Z,18.00
2019-03-03T08:42:31.308Z,18.67
2019-03-03T08:45:12.243Z,14.77
2019-03-03T08:47:53.192Z,20.17
2019-03-03T08:50:24.405Z,13.73
2019-03-03T08:53:03.485Z,17.70
2019-03-03T08:55:45.640Z,18.03
2019-03-03T08:58:22.402Z,13.07
2019-03-03T09:01:18.289Z,17.53
2019-03-03T09:04:03.733Z,19.13
2019-03-03T09:06:51.932Z,14.33
2019-03-03T09:09:51.317Z,22.83
2019-03-03T09:12:32.463Z,15.37
2019-03-03T09:15:16.242Z,14.00
2019-03-03T09:17:53.546Z,13.50
2019-03-03T09:20:40.015Z,14.37
2019-03-03T09:23:29.278Z,12.43
2019-03-03T09:26:25.007Z,14.87
2019-03-03T09:29:01.620Z,18.77
2019-03-03T09:31:49.418Z,14.00
2019-03-03T09:34:36.776Z,20.63
2019-03-03T09:37:34.990Z,16.30
2019-03-03T09:40:16.125Z,19.03
2019-03-03T09:42:53.253Z,15.73
2019-03-03T09:45:37.598Z,15.03
2019-03-03T09:48:29.220Z,17.77
2019-03-03T09:51:18.190Z,15.27
2019-03-03T09:54:16.326Z,15.83
2019-03-03T09:57:02.985Z,16.07
2019-03-03T09:59:40.460Z,17.77
2019-03-03T10:02:29.237Z,17.67
2019-03-03T10:05:16.831Z,14.53
2019-03-03T10:07:58.618Z,13.97
2019-03-03T10:10:38.271Z,19.90
2019-03-03T10:13:39.219Z,14.47
2019-03-03T10:16:26.995Z,14.53
2019-03-03T10:19:32.063Z,14.13
2019-03-03T10:22:21.212Z,14.67
2019-03-03T10:25:03.353Z,16.80
2019-03-03T10:27:52.499Z,8.63
2019-03-03T10:30:42.648Z,17.70
2019-03-03T10:33:36.321Z,12.57
2019-03-03T10:36:23.725Z,15.63
2019-03-03T10:39:00.437Z,10.90
2019-03-03T10:41:42.792Z,15.37
2019-03-03T10:44:29.679Z,9.37
2019-03-03T10:47:19.907Z,13.40
2019-03-03T10:50:01.415Z,12.40
2019-03-03T10:52:59.566Z,12.17
2019-03-03T10:55:51.627Z,9.17
2019-03-03T10:58:43.327Z,11.83
2019-03-03T11:01:35.586Z,9.80
2019-03-03T11:04:25.768Z,10.23
2019-03-03T11:07:23.788Z,8.60
2019-03-03T11:10:09.358Z,5.67
2019-03-03T11:12:45.103Z,5.57
2019-03-03T11:15:42.616Z,6.40
2019-03-03T11:18:30.075Z,7.43
2019-03-03T11:21:25.064Z,8.80
2019-03-03T11:24:19.788Z,7.27
2019-03-03T11:27:17.376Z,7.47
2019-03-03T11:29:56.257Z,6.90
2019-03-03T11:32:47.894Z,6.33
2019-03-03T11:35:25.565Z,6.80
2019-03-03T11:38:07.508Z,5.53
2019-03-03T11:40:55.189Z,8.77
2019-03-03T11:43:51.408Z,3.53
2019-03-03T11:46:33.036Z,6.27
2019-03-03T11:49:37.387Z,7.53
2019-03-03T11:52:22.819Z,4.87
2019-03-03T11:55:14.936Z,5.67
2019-03-03T11:57:51.337Z,6.73
2019-03-03T12:00:42.091Z,7.03
2019-03-03T12:03:34.281Z,6.67
2019-03-03T12:06:23.982Z,7.90
2019-03-03T12:09:12.628Z,9.00
2019-03-03T12:12:14.013Z,6.10
2019-03-03T12:15:17.919Z,5.43
2019-03-03T12:17:53.110Z,9.43
2019-03-03T12:20:36.356Z,7.43
2019-03-03T12:23:34.075Z,6.90
2019-03-03T12:26:14.149Z,6.73
2019-03-03T12:29:09.239Z,8.50
2019-03-03T12:31:58.358Z,7.87
2019-03-03T12:34:36.620Z,9.03
2019-03-03T12:37:28.542Z,6.67
2019-03-03T12:40:16.345Z,8.63
2019-03-03T12:43:01.560Z,5.43
2019-03-03T12:45:38.070Z,9.00
2019-03-03T12:48:21.210Z,9.00
2019-03-03T12:51:02.134Z,7.77
2019-03-03T12:53:53.975Z,7.43
2019-03-03T12:56:36.575Z,8.23
2019-03-03T12:59:24.400Z,8.20
2019-03-03T13:02:13.174Z,9.90
2019-03-03T13:04:52.022Z,10.37
2019-03-03T13:07:43.768Z,7.37
2019-03-03T13:10:35.597Z,7.43
2019-03-03T13:13:23.372Z,7.33
2019-03-03T13:16:15.048Z,7.53
2019-03-03T13:18:51.084Z,8.83
2019-03-03T13:21:33.357Z,8.50
2019-03-03T13:24:18.722Z,9.57
2019-03-03T13:26:57.484Z,8.20
2019-03-03T13:29:46.256Z,6.13
2019-03-03T13:32:33.357Z,6.30
2019-03-03T13:35:14.978Z,6.40
2019-03-03T13:38:01.700Z,6.40
2019-03-03T13:40:41.002Z,10.10
2019-03-03T13:43:10.883Z,7.90
2019-03-03T13:45:40.749Z,8.43
2019-03-03T13:48:10.974Z,7.07
2019-03-03T13:50:42.090Z,9.00
2019-03-03T13:53:12.125Z,9.27
2019-03-03T13:55:41.889Z,8.77
2019-03-03T13:58:12.161Z,8.17
2019-03-03T14:00:42.184Z,5.33
2019-03-03T14:03:12.351Z,7.47
2019-03-03T14:05:42.139Z,6.43
2019-03-03T14:08:11.962Z,9.40
2019-03-03T14:10:41.794Z,7.80
2019-03-03T14:13:11.710Z,9.90
2019-03-03T14:15:41.889Z,6.97
2019-03-03T14:18:12.023Z,7.53
2019-03-03T14:20:41.887Z,6.07
2019-03-03T14:23:11.651Z,8.83
2019-03-03T14:25:41.606Z,8.60
2019-03-03T14:28:11.623Z,4.60
2019-03-03T14:30:41.292Z,9.30
2019-03-03T14:33:11.148Z,7.47
2019-03-03T14:35:40.879Z,6.13
2019-03-03T14:38:10.893Z,7.33
2019-03-03T14:40:41.053Z,10.73
2019-03-03T14:43:10.833Z,7.77
2019-03-03T14:45:40.611Z,7.47
2019-03-03T14:48:10.411Z,7.10
2019-03-03T14:50:40.188Z,8.20
2019-03-03T14:53:10.179Z,7.97
2019-03-03T14:55:40.238Z,8.63
2019-03-03T14:58:10.289Z,9.33
2019-03-03T15:00:40.410Z,8.30
2019-03-03T15:03:10.274Z,8.40
2019-03-03T15:05:40.082Z,11.67
2019-03-03T15:08:10.193Z,9.40
2019-03-03T15:10:40.012Z,5.53
2019-03-03T15:13:09.886Z,8.10
2019-03-03T15:15:40.028Z,9.87
2019-03-03T15:18:10.160Z,8.90
2019-03-03T15:20:40.171Z,8.57
2019-03-03T15:23:10.049Z,9.10
2019-03-03T15:25:39.807Z,10.77
2019-03-03T15:28:09.700Z,10.57
2019-03-03T15:30:39.493Z,8.03
2019-03-03T15:33:09.543Z,7.67
2019-03-03T15:35:39.332Z,8.67
2019-03-03T15:38:09.310Z,12.73
2019-03-03T15:40:39.711Z,10.73
2019-03-03T15:43:09.392Z,8.80
2019-03-03T15:45:39.237Z,11.40
2019-03-03T15:48:09.013Z,9.77
2019-03-03T15:50:38.783Z,5.67
2019-03-03T15:53:09.083Z,8.70
2019-03-03T15:55:38.849Z,7.83
2019-03-03T15:58:08.639Z,6.27
2019-03-03T16:00:38.922Z,8.90
2019-03-03T16:03:08.688Z,8.07
2019-03-03T16:05:38.498Z,7.00
2019-03-03T16:08:08.294Z,8.70
2019-03-03T16:10:37.961Z,10.97
2019-03-03T16:13:07.786Z,10.43
2019-03-03T16:15:37.926Z,12.50
2019-03-03T16:18:07.722Z,10.97
2019-03-03T16:20:37.605Z,12.20
2019-03-03T16:23:07.575Z,10.53
2019-03-03T16:25:37.262Z,13.67
2019-03-03T16:28:07.082Z,16.30
2019-03-03T16:30:37.016Z,17.20
2019-03-03T16:33:06.837Z,11.00
2019-03-03T16:35:36.594Z,12.20
2019-03-03T16:38:06.420Z,15.63
2019-03-03T16:40:39.576Z,13.97
2019-03-03T16:43:09.252Z,12.50
2019-03-03T16:45:39.076Z,11.17
2019-03-03T16:48:09.867Z,13.50
2019-03-03T16:50:40.552Z,13.83
2019-03-03T16:53:10.371Z,11.80
2019-03-03T16:55:40.235Z,11.73
2019-03-03T16:58:10.103Z,10.07
2019-03-03T17:00:40.386Z,12.00
2019-03-03T17:03:10.220Z,12.47
2019-03-03T17:05:40.316Z,11.33
2019-03-03T17:08:10.133Z,10.27
2019-03-03T17:10:40.262Z,11.97
2019-03-03T17:13:09.962Z,9.73
2019-03-03T17:15:39.835Z,11.83
2019-03-03T17:18:09.792Z,6.97
2019-03-03T17:20:39.754Z,11.03
2019-03-03T17:23:09.594Z,11.50
2019-03-03T17:25:39.387Z,9.43
2019-03-03T17:28:09.149Z,11.73
2019-03-03T17:30:39.495Z,12.07
2019-03-03T17:33:10.303Z,12.30
2019-03-03T17:35:40.019Z,9.83
2019-03-03T17:38:10.131Z,8.47
2019-03-03T17:40:39.951Z,8.20
2019-03-03T17:43:09.916Z,11.17
2019-03-03T17:45:41.340Z,12.63
2019-03-03T17:48:11.131Z,11.97
2019-03-03T17:50:40.944Z,9.43
2019-03-03T17:53:10.926Z,12.83
2019-03-03T17:55:40.736Z,10.60
2019-03-03T17:58:10.811Z,10.20
2019-03-03T18:00:42.815Z,8.93
2019-03-03T18:03:12.567Z,10.57
2019-03-03T18:05:42.658Z,6.27
2019-03-03T18:08:12.484Z,6.87
2019-03-03T18:10:42.333Z,12.63
2019-03-03T18:13:12.152Z,7.83
2019-03-03T18:15:41.948Z,12.43
2019-03-03T18:18:12.179Z,6.00
2019-03-03T18:20:41.926Z,7.37
2019-03-03T18:23:14.871Z,4.27
2019-03-03T18:25:44.154Z,8.43
2019-03-03T18:28:14.197Z,8.50
2019-03-03T18:30:44.123Z,9.17
2019-03-03T18:33:14.341Z,10.30
2019-03-03T18:35:44.185Z,6.93
2019-03-03T18:38:14.024Z,10.43
2019-03-03T18:40:44.778Z,12.67
2019-03-03T18:43:14.958Z,6.70
2019-03-03T18:45:44.692Z,11.77
2019-03-03T18:48:14.451Z,9.83
2019-03-03T18:50:44.259Z,9.67
2019-03-03T18:53:14.086Z,7.27
2019-03-03T18:55:44.292Z,5.77
2019-03-03T18:58:14.196Z,9.17
2019-03-03T19:00:44.112Z,11.73
2019-03-03T19:03:14.498Z,2.87
2019-03-03T19:05:44.516Z,9.47
2019-03-03T19:08:15.094Z,8.60
2019-03-03T19:10:45.504Z,10.20
2019-03-03T19:13:15.265Z,9.07
2019-03-03T19:15:45.221Z,8.60
2019-03-03T19:18:15.317Z,7.90
2019-03-03T19:20:45.137Z,8.50
2019-03-03T19:23:15.279Z,7.47
2019-03-03T19:25:45.016Z,9.03
2019-03-03T19:28:14.815Z,12.80
2019-03-03T19:30:44.804Z,11.77
2019-03-03T19:33:18.226Z,9.30
2019-03-03T19:35:48.262Z,6.53
2019-03-03T19:38:18.145Z,10.10
2019-03-03T19:40:48.007Z,10.20
2019-03-03T19:43:17.796Z,8.57
2019-03-03T19:45:47.740Z,8.00
2019-03-03T19:48:18.287Z,8.50
2019-03-03T19:50:48.212Z,7.03
2019-03-03T19:53:17.993Z,7.77
2019-03-03T19:55:48.077Z,8.43
2019-03-03T19:58:18.176Z,13.23
2019-03-03T20:00:48.375Z,8.37
2019-03-03T20:03:18.216Z,9.10
2019-03-03T20:05:48.038Z,7.17
2019-03-03T20:08:18.508Z,10.60
2019-03-03T20:10:49.232Z,11.63
2019-03-03T20:13:19.226Z,10.70
2019-03-03T20:15:49.011Z,9.53
2019-03-03T20:18:19.858Z,6.30
2019-03-03T20:20:49.690Z,9.93
2019-03-03T20:23:19.637Z,8.97
2019-03-03T20:25:49.729Z,11.87
2019-03-03T20:28:19.531Z,6.73
2019-03-03T20:30:50.608Z,11.43
2019-03-03T20:33:20.993Z,8.43
2019-03-03T20:35:50.771Z,8.80
2019-03-03T20:38:20.546Z,9.57
2019-03-03T20:40:50.373Z,7.83
2019-03-03T20:43:20.121Z,9.30
2019-03-03T20:45:49.847Z,13.67
2019-03-03T20:48:19.626Z,8.93
2019-03-03T20:50:49.641Z,7.73
2019-03-03T20:53:19.521Z,10.43
2019-03-03T20:55:49.351Z,4.87
2019-03-03T20:58:19.462Z,11.03
2019-03-03T21:00:49.344Z,8.27
2019-03-03T21:03:19.167Z,14.30
2019-03-03T21:05:48.961Z,8.47
2019-03-03T21:08:18.702Z,8.27
2019-03-03T21:10:48.771Z,14.90
2019-03-03T21:13:18.500Z,7.30
2019-03-03T21:15:48.717Z,11.50
2019-03-03T21:18:18.417Z,8.93
2019-03-03T21:20:48.470Z,10.13
2019-03-03T21:23:18.640Z,10.40
2019-03-03T21:25:48.328Z,14.33
2019-03-03T21:28:18.171Z,8.00
2019-03-03T21:30:48.069Z,8.47
2019-03-03T21:33:17.860Z,9.50
2019-03-03T21:35:47.686Z,7.67
2019-03-03T21:38:17.426Z,9.80
2019-03-03T21:40:47.241Z,4.73
2019-03-03T21:43:17.044Z,6.67
2019-03-03T21:45:46.749Z,10.80
2019-03-03T21:48:16.485Z,9.40
2019-03-03T21:50:46.221Z,6.27
2019-03-03T21:53:16.391Z,8.77
2019-03-03T21:55:46.548Z,8.97
2019-03-03T21:58:16.233Z,8.10
2019-03-03T22:00:46.019Z,7.87
2019-03-03T22:03:16.040Z,9.17
2019-03-03T22:05:45.877Z,5.60
2019-03-03T22:08:16.802Z,6.67
2019-03-03T22:10:46.665Z,8.13
2019-03-03T22:13:16.405Z,6.57
2019-03-03T22:15:46.145Z,5.53
2019-03-03T22:18:15.986Z,3.43
2019-03-03T22:20:46.092Z,11.97
2019-03-03T22:23:15.826Z,6.67
2019-03-03T22:25:45.569Z,5.13
2019-03-03T22:28:15.330Z,5.93
2019-03-03T22:30:45.096Z,4.83
2019-03-03T22:33:14.856Z,8.83
2019-03-03T22:35:44.520Z,7.53
2019-03-03T22:38:14.620Z,5.63
2019-03-03T22:40:44.441Z,6.50
2019-03-03T22:43:14.189Z,7.07
2019-03-03T22:45:44.202Z,10.33
2019-03-03T22:48:13.952Z,8.27
2019-03-03T22:50:43.649Z,6.83
2019-03-03T22:53:13.419Z,8.00
2019-03-03T22:55:43.196Z,6.27
2019-03-03T22:58:13.061Z,7.00
2019-03-03T23:01:09.168Z,5.93
2019-03-03T23:03:44.232Z,4.67
2019-03-03T23:06:35.550Z,6.83
2019-03-03T23:09:48.621Z,5.53
2019-03-03T23:12:49.293Z,6.67
2019-03-03T23:15:40.180Z,8.73
2019-03-03T23:18:33.041Z,9.07
2019-03-03T23:21:37.078Z,8.40
2019-03-03T23:24:49.437Z,6.30
2019-03-03T23:27:19.220Z,8.87
2019-03-03T23:29:48.888Z,6.50
2019-03-03T23:32:18.929Z,6.73
2019-03-03T23:34:48.674Z,5.27
2019-03-03T23:37:18.717Z,7.43
2019-03-03T23:39:48.488Z,4.27
2019-03-03T23:42:18.252Z,8.00
2019-03-03T23:44:48.121Z,5.13
2019-03-03T23:47:17.921Z,5.30
2019-03-03T23:49:47.973Z,6.10
2019-03-03T23:52:17.673Z,3.30
2019-03-03T23:54:47.386Z,5.17
2019-03-03T23:57:17.413Z,5.20
2019-03-03T23:59:47.083Z,5.53
